Terminal Aerodrome Forecast
Issued by NWS

Home | Current Version | Previous Version | Text Only | Print | Product List | Glossary On
Versions: 1 2 3 4 5 6 7 8 9 10 11 12 13 14 15
200
FTUS43 KGRR 260726 AAA
TAFLAN
TAF AMD
KLAN 260726Z 2607/2706 26008KT P6SM FEW040
     FM261500 26012G24KT P6SM VCSH BKN040
     FM270000 29010KT P6SM BKN040=

USA.gov is the U.S. government's official web portal to all federal, state and local government web resources and services.